createdAt,value
2019-04-07T00:01:14.582Z,72.20
2019-04-07T00:03:44.935Z,71.70
2019-04-07T00:06:14.909Z,71.90
2019-04-07T00:08:44.470Z,72.10
2019-04-07T00:11:15.043Z,72.30
2019-04-07T00:13:44.772Z,72.60
2019-04-07T00:16:14.736Z,72.80
2019-04-07T00:18:44.320Z,73.10
2019-04-07T00:21:14.590Z,73.00
2019-04-07T00:23:45.147Z,72.80
2019-04-07T00:26:14.563Z,72.40
2019-04-07T00:28:44.527Z,72.10
2019-04-07T00:31:13.818Z,72.00
2019-04-07T00:33:43.746Z,71.90
2019-04-07T00:36:13.604Z,71.70
2019-04-07T00:38:42.925Z,71.20
2019-04-07T00:41:12.262Z,71.30
2019-04-07T00:43:41.794Z,71.80
2019-04-07T00:46:11.532Z,71.60
2019-04-07T00:48:42.319Z,71.60
2019-04-07T00:51:12.446Z,72.70
2019-04-07T00:53:41.786Z,73.20
2019-04-07T00:56:11.623Z,73.90
2019-04-07T00:58:40.958Z,74.20
2019-04-07T01:01:12.081Z,75.20
2019-04-07T01:03:41.459Z,75.30
2019-04-07T01:06:11.478Z,75.40
2019-04-07T01:08:42.522Z,75.60
2019-04-07T01:11:12.490Z,75.40
2019-04-07T01:13:41.765Z,75.60
2019-04-07T01:16:11.074Z,75.90
2019-04-07T01:18:40.537Z,76.00
2019-04-07T01:21:09.968Z,77.00
2019-04-07T01:23:39.850Z,75.90
2019-04-07T01:26:09.697Z,76.30
2019-04-07T01:28:39.708Z,76.00
2019-04-07T01:31:09.639Z,76.00
2019-04-07T01:33:40.084Z,76.20
2019-04-07T01:36:11.113Z,76.50
2019-04-07T01:38:41.136Z,76.70
2019-04-07T01:41:18.582Z,76.90
2019-04-07T01:44:10.197Z,77.30
2019-04-07T01:47:07.844Z,77.60
2019-04-07T01:49:55.630Z,77.60
2019-04-07T01:52:33.791Z,77.80
2019-04-07T01:55:21.277Z,78.40
2019-04-07T01:58:07.739Z,78.80
2019-04-07T02:00:53.835Z,78.80
2019-04-07T02:03:53.679Z,79.00
2019-04-07T02:06:48.683Z,78.90
2019-04-07T02:09:33.635Z,79.10
2019-04-07T02:12:25.867Z,79.50
2019-04-07T02:15:18.576Z,79.70
2019-04-07T02:18:20.016Z,80.00
2019-04-07T02:21:15.786Z,79.80
2019-04-07T02:24:02.909Z,80.00
2019-04-07T02:26:47.140Z,80.20
2019-04-07T02:29:45.051Z,80.30
2019-04-07T02:32:35.652Z,80.10
2019-04-07T02:35:13.070Z,80.60
2019-04-07T02:38:04.089Z,81.20
2019-04-07T02:41:01.736Z,81.50
2019-04-07T02:43:50.667Z,81.90
2019-04-07T02:46:39.426Z,82.00
2019-04-07T02:49:32.186Z,82.00
2019-04-07T02:52:31.771Z,81.80
2019-04-07T02:55:26.789Z,80.90
2019-04-07T02:58:03.020Z,80.90
2019-04-07T03:00:48.067Z,81.70
2019-04-07T03:03:46.487Z,81.40
2019-04-07T03:06:47.770Z,81.40
2019-04-07T03:09:28.242Z,81.00
2019-04-07T03:12:08.906Z,81.50
2019-04-07T03:15:06.988Z,81.00
2019-04-07T03:17:43.692Z,81.00
2019-04-07T03:20:29.554Z,81.00
2019-04-07T03:23:17.190Z,81.10
2019-04-07T03:26:04.430Z,81.10
2019-04-07T03:28:56.128Z,81.40
2019-04-07T03:31:38.535Z,81.40
2019-04-07T03:34:24.138Z,81.30
2019-04-07T03:37:22.610Z,81.20
2019-04-07T03:39:52.529Z,81.20
2019-04-07T03:42:57.403Z,81.90
2019-04-07T03:45:33.869Z,81.90
2019-04-07T03:48:15.793Z,81.80
2019-04-07T03:51:20.325Z,82.00
2019-04-07T03:54:16.614Z,81.90
2019-04-07T03:57:04.829Z,81.90
2019-04-07T03:59:44.544Z,81.90
2019-04-07T04:02:39.284Z,81.90
2019-04-07T04:05:27.369Z,81.60
2019-04-07T04:08:19.327Z,81.90
2019-04-07T04:10:58.151Z,81.40
2019-04-07T04:13:40.935Z,81.30
2019-04-07T04:16:18.091Z,81.00
2019-04-07T04:18:49.112Z,81.10
2019-04-07T04:21:18.419Z,81.20
2019-04-07T04:23:47.854Z,80.70
2019-04-07T04:26:17.652Z,80.50
2019-04-07T04:28:47.682Z,80.80
2019-04-07T04:31:17.964Z,80.80
2019-04-07T04:33:48.499Z,81.00
2019-04-07T04:36:18.470Z,80.90
2019-04-07T04:38:48.059Z,81.10
2019-04-07T04:41:18.941Z,81.70
2019-04-07T04:43:49.115Z,81.00
2019-04-07T04:46:19.080Z,81.10
2019-04-07T04:48:49.308Z,80.90
2019-04-07T04:51:19.659Z,80.90
2019-04-07T04:53:50.379Z,80.90
2019-04-07T04:56:20.396Z,80.70
2019-04-07T04:58:50.697Z,80.40
2019-04-07T05:01:20.732Z,80.30
2019-04-07T05:03:52.368Z,80.10
2019-04-07T05:06:22.174Z,80.60
2019-04-07T05:08:51.517Z,80.40
2019-04-07T05:11:21.205Z,80.00
2019-04-07T05:13:51.152Z,79.50
2019-04-07T05:16:21.359Z,79.60
2019-04-07T05:18:51.859Z,79.30
2019-04-07T05:21:21.762Z,79.00
2019-04-07T05:23:51.401Z,79.50
2019-04-07T05:26:21.336Z,79.50
2019-04-07T05:28:51.701Z,79.90
2019-04-07T05:31:21.100Z,79.80
2019-04-07T05:33:51.999Z,79.70
2019-04-07T05:36:22.373Z,79.60
2019-04-07T05:38:52.314Z,79.90
2019-04-07T05:41:21.859Z,79.80
2019-04-07T05:43:52.438Z,79.10
2019-04-07T05:46:22.793Z,78.80
2019-04-07T05:48:53.119Z,78.80
2019-04-07T05:51:23.684Z,78.80
2019-04-07T05:53:53.892Z,78.90
2019-04-07T05:56:28.118Z,78.60
2019-04-07T05:58:54.980Z,78.50
2019-04-07T06:01:24.609Z,79.50
2019-04-07T06:03:54.646Z,78.80
2019-04-07T06:06:24.754Z,78.50
2019-04-07T06:08:54.062Z,78.20
2019-04-07T06:11:23.385Z,78.60
2019-04-07T06:13:53.798Z,78.80
2019-04-07T06:16:23.748Z,78.30
2019-04-07T06:18:53.852Z,78.70
2019-04-07T06:21:24.225Z,79.10
2019-04-07T06:23:58.437Z,79.10
2019-04-07T06:26:25.552Z,78.60
2019-04-07T06:28:58.462Z,78.60
2019-04-07T06:31:27.245Z,78.70
2019-04-07T06:33:57.949Z,78.40
2019-04-07T06:36:28.655Z,78.20
2019-04-07T06:38:59.348Z,77.60
2019-04-07T06:41:31.218Z,77.70
2019-04-07T06:44:09.916Z,77.30
2019-04-07T06:46:47.917Z,78.00
2019-04-07T06:49:33.879Z,77.80
2019-04-07T06:52:25.879Z,77.90
2019-04-07T06:55:17.975Z,76.40
2019-04-07T06:58:19.673Z,76.70
2019-04-07T07:01:14.405Z,75.80
2019-04-07T07:04:01.808Z,76.10
2019-04-07T07:06:42.197Z,75.40
2019-04-07T07:09:43.213Z,75.60
2019-04-07T07:12:35.017Z,74.30
2019-04-07T07:15:33.705Z,73.90
2019-04-07T07:18:22.139Z,73.20
2019-04-07T07:21:25.054Z,72.30
2019-04-07T07:23:54.357Z,73.40
2019-04-07T07:26:24.428Z,73.20
2019-04-07T07:28:55.872Z,73.40
2019-04-07T07:31:28.374Z,72.70
2019-04-07T07:33:58.272Z,72.20
2019-04-07T07:36:28.470Z,71.30
2019-04-07T07:39:02.112Z,71.10
2019-04-07T07:41:29.409Z,70.40
2019-04-07T07:44:02.658Z,70.30
2019-04-07T07:46:29.775Z,70.00
2019-04-07T07:49:01.761Z,71.30
2019-04-07T07:51:30.340Z,71.00
2019-04-07T07:54:01.792Z,70.80
2019-04-07T07:56:31.464Z,70.50
2019-04-07T07:59:01.823Z,70.90
2019-04-07T08:01:32.238Z,70.80
2019-04-07T08:04:03.456Z,70.40
2019-04-07T08:06:38.522Z,69.40
2019-04-07T08:09:13.962Z,70.50
2019-04-07T08:11:39.946Z,71.00
2019-04-07T08:14:10.034Z,70.70
2019-04-07T08:16:40.080Z,70.70
2019-04-07T08:19:10.986Z,70.70
2019-04-07T08:21:43.365Z,70.60
2019-04-07T08:24:16.416Z,68.80
2019-04-07T08:26:44.768Z,68.80
2019-04-07T08:29:16.965Z,69.10
2019-04-07T08:31:47.000Z,68.90
2019-04-07T08:34:17.811Z,68.20
2019-04-07T08:36:48.177Z,69.00
2019-04-07T08:39:23.780Z,68.40
2019-04-07T08:41:49.360Z,68.50
2019-04-07T08:44:18.728Z,68.30
2019-04-07T08:46:48.535Z,68.70
2019-04-07T08:49:19.147Z,67.90
2019-04-07T08:51:49.512Z,66.30
2019-04-07T08:54:19.959Z,66.30
2019-04-07T08:56:50.252Z,65.70
2019-04-07T08:59:20.256Z,65.30
2019-04-07T09:01:51.570Z,67.90
2019-04-07T09:04:20.749Z,66.60
2019-04-07T09:06:50.750Z,63.80
2019-04-07T09:09:31.362Z,61.80
2019-04-07T09:11:54.991Z,63.30
2019-04-07T09:14:22.323Z,63.20
2019-04-07T09:17:29.315Z,63.00
2019-04-07T09:20:10.425Z,62.80
2019-04-07T09:22:58.253Z,60.90
2019-04-07T09:25:40.008Z,63.40
2019-04-07T09:28:23.979Z,62.60
2019-04-07T09:31:10.344Z,61.90
2019-04-07T09:33:57.504Z,61.00
2019-04-07T09:36:48.468Z,60.90
2019-04-07T09:39:25.727Z,60.10
2019-04-07T09:42:15.889Z,60.60
2019-04-07T09:44:52.888Z,59.80
2019-04-07T09:47:46.831Z,59.10
2019-04-07T09:50:37.616Z,61.40
2019-04-07T09:53:21.503Z,59.80
2019-04-07T09:56:19.565Z,59.70
2019-04-07T09:59:16.974Z,59.90
2019-04-07T10:02:16.605Z,58.20
2019-04-07T10:05:11.882Z,60.30
2019-04-07T10:08:04.458Z,58.60
2019-04-07T10:10:51.686Z,57.60
2019-04-07T10:13:46.354Z,57.70
2019-04-07T10:16:27.033Z,56.70
2019-04-07T10:19:15.390Z,56.20
2019-04-07T10:22:00.584Z,55.80
2019-04-07T10:24:49.533Z,55.00
2019-04-07T10:27:39.676Z,55.80
2019-04-07T10:30:32.044Z,55.50
2019-04-07T10:33:24.722Z,54.90
2019-04-07T10:36:02.959Z,53.30
2019-04-07T10:38:42.574Z,52.00
2019-04-07T10:41:26.149Z,51.60
2019-04-07T10:44:27.396Z,50.60
2019-04-07T10:47:11.873Z,50.20
2019-04-07T10:50:05.198Z,48.60
2019-04-07T10:52:41.383Z,49.60
2019-04-07T10:55:30.005Z,51.00
2019-04-07T10:58:18.342Z,49.30
2019-04-07T11:01:11.517Z,49.10
2019-04-07T11:04:04.925Z,48.70
2019-04-07T11:06:54.105Z,48.60
2019-04-07T11:09:42.784Z,49.70
2019-04-07T11:12:34.728Z,49.60
2019-04-07T11:15:27.098Z,51.00
2019-04-07T11:18:21.206Z,50.30
2019-04-07T11:21:09.533Z,50.70
2019-04-07T11:24:05.358Z,51.20
2019-04-07T11:26:53.920Z,52.10
2019-04-07T11:29:39.655Z,51.80
2019-04-07T11:32:32.380Z,51.90
2019-04-07T11:35:17.132Z,51.70
2019-04-07T11:37:54.301Z,51.40
2019-04-07T11:40:49.593Z,50.80
2019-04-07T11:43:25.965Z,49.20
2019-04-07T11:46:08.834Z,49.90
2019-04-07T11:48:50.395Z,50.30
2019-04-07T11:51:26.279Z,49.10
2019-04-07T11:54:15.317Z,49.90
2019-04-07T11:56:57.330Z,49.20
2019-04-07T11:59:46.773Z,48.40
2019-04-07T12:02:40.990Z,48.70
2019-04-07T12:05:25.106Z,48.60
2019-04-07T12:08:12.837Z,48.40
2019-04-07T12:11:07.057Z,47.00
2019-04-07T12:13:44.137Z,46.10
2019-04-07T12:16:31.004Z,45.50
2019-04-07T12:19:15.091Z,45.40
2019-04-07T12:22:02.324Z,43.70
2019-04-07T12:24:51.297Z,43.70
2019-04-07T12:27:40.640Z,45.60
2019-04-07T12:30:26.528Z,44.20
2019-04-07T12:33:17.954Z,44.70
2019-04-07T12:36:09.965Z,44.10
2019-04-07T12:38:57.446Z,42.00
2019-04-07T12:41:34.712Z,42.60
2019-04-07T12:44:23.336Z,42.40
2019-04-07T12:47:08.008Z,42.70
2019-04-07T12:49:56.195Z,43.70
2019-04-07T12:52:42.337Z,43.00
2019-04-07T12:55:37.241Z,42.90
2019-04-07T12:58:25.530Z,44.80
2019-04-07T13:01:16.289Z,45.00
2019-04-07T13:04:07.282Z,45.50
2019-04-07T13:07:06.751Z,46.60
2019-04-07T13:09:53.697Z,46.80
2019-04-07T13:12:35.560Z,46.80
2019-04-07T13:15:23.461Z,45.70
2019-04-07T13:18:13.395Z,45.30
2019-04-07T13:21:11.534Z,43.90
2019-04-07T13:24:12.839Z,42.70
2019-04-07T13:26:46.690Z,42.20
2019-04-07T13:29:40.926Z,38.70
2019-04-07T13:32:38.914Z,38.80
2019-04-07T13:35:17.535Z,39.10
2019-04-07T13:38:04.517Z,40.00
2019-04-07T13:40:46.972Z,41.90
2019-04-07T13:43:23.345Z,42.20
2019-04-07T13:46:27.601Z,43.70
2019-04-07T13:49:11.743Z,43.40
2019-04-07T13:52:06.081Z,43.90
2019-04-07T13:54:53.712Z,44.40
2019-04-07T13:57:34.921Z,44.20
2019-04-07T14:00:46.317Z,44.70
2019-04-07T14:03:32.722Z,44.30
2019-04-07T14:06:24.809Z,44.70
2019-04-07T14:09:13.220Z,44.30
2019-04-07T14:12:04.915Z,44.90
2019-04-07T14:14:49.395Z,44.50
2019-04-07T14:17:33.977Z,45.70
2019-04-07T14:20:16.160Z,44.70
2019-04-07T14:23:14.629Z,44.30
2019-04-07T14:25:53.861Z,42.20
2019-04-07T14:28:43.979Z,40.40
2019-04-07T14:31:42.317Z,40.00
2019-04-07T14:34:37.710Z,38.80
2019-04-07T14:37:26.429Z,38.80
2019-04-07T14:40:07.940Z,37.70
2019-04-07T14:42:53.322Z,37.40
2019-04-07T14:45:35.969Z,36.70
2019-04-07T14:48:27.293Z,36.10
2019-04-07T14:51:15.393Z,35.90
2019-04-07T14:54:04.496Z,36.70
2019-04-07T14:57:07.329Z,36.50
2019-04-07T14:59:53.903Z,36.00
2019-04-07T15:02:21.539Z,35.60
2019-04-07T15:04:58.468Z,35.10
2019-04-07T15:08:06.489Z,35.60
2019-04-07T15:10:40.851Z,35.30
2019-04-07T15:13:13.677Z,36.10
2019-04-07T15:15:43.195Z,36.60
2019-04-07T15:18:12.773Z,36.00
2019-04-07T15:20:43.833Z,36.80
2019-04-07T15:23:13.344Z,36.30
2019-04-07T15:25:46.065Z,35.40
2019-04-07T15:28:14.313Z,36.20
2019-04-07T15:30:47.141Z,35.70
2019-04-07T15:33:15.699Z,36.10
2019-04-07T15:35:48.688Z,36.60
2019-04-07T15:38:16.681Z,35.40
2019-04-07T15:40:46.017Z,35.90
2019-04-07T15:43:15.837Z,35.60
2019-04-07T15:45:45.606Z,35.90
2019-04-07T15:48:15.014Z,36.40
2019-04-07T15:50:44.314Z,35.80
2019-04-07T15:53:15.332Z,35.90
2019-04-07T15:55:51.025Z,35.80
2019-04-07T15:58:16.971Z,35.30
2019-04-07T16:00:47.069Z,34.60
2019-04-07T16:03:16.954Z,34.20
2019-04-07T16:05:46.924Z,34.00
2019-04-07T16:08:16.267Z,34.20
2019-04-07T16:10:46.569Z,34.00
2019-04-07T16:13:17.397Z,35.00
2019-04-07T16:15:50.935Z,35.40
2019-04-07T16:18:18.959Z,35.90
2019-04-07T16:20:49.542Z,36.50
2019-04-07T16:23:19.592Z,37.80
2019-04-07T16:25:49.928Z,38.50
2019-04-07T16:28:19.278Z,39.70
2019-04-07T16:30:51.782Z,40.50
2019-04-07T16:33:20.602Z,40.80
2019-04-07T16:35:54.032Z,41.90
2019-04-07T16:38:21.617Z,42.10
2019-04-07T16:40:50.941Z,42.60
2019-04-07T16:43:20.284Z,42.80
2019-04-07T16:45:50.570Z,43.50
2019-04-07T16:48:20.886Z,43.80
2019-04-07T16:50:53.293Z,44.00
2019-04-07T16:53:21.898Z,44.20
2019-04-07T16:55:54.059Z,44.50
2019-04-07T16:58:22.463Z,45.20
2019-04-07T17:00:53.385Z,45.60
2019-04-07T17:03:23.685Z,45.70
2019-04-07T17:05:57.338Z,46.10
2019-04-07T17:08:25.825Z,46.20
2019-04-07T17:10:56.817Z,46.30
2019-04-07T17:13:34.665Z,46.70
2019-04-07T17:15:57.298Z,47.10
2019-04-07T17:18:39.397Z,47.20
2019-04-07T17:21:13.740Z,47.80
2019-04-07T17:23:42.978Z,48.00
2019-04-07T17:26:12.353Z,48.10
2019-04-07T17:28:46.078Z,48.40
2019-04-07T17:31:14.264Z,48.70
2019-04-07T17:33:44.356Z,49.00
2019-04-07T17:36:17.559Z,49.30
2019-04-07T17:39:09.146Z,49.40
2019-04-07T17:41:37.693Z,49.80
2019-04-07T17:44:47.794Z,50.10
2019-04-07T17:47:31.574Z,50.10
2019-04-07T17:50:30.393Z,50.50
2019-04-07T17:53:19.370Z,50.70
2019-04-07T17:56:07.653Z,50.90
2019-04-07T17:58:52.400Z,53.10
2019-04-07T18:01:44.277Z,52.40
2019-04-07T18:04:33.997Z,50.90
2019-04-07T18:07:27.737Z,51.00
2019-04-07T18:10:29.436Z,51.70
2019-04-07T18:13:17.108Z,52.20
2019-04-07T18:16:01.607Z,52.40
2019-04-07T18:18:38.563Z,52.70
2019-04-07T18:21:25.718Z,52.80
2019-04-07T18:24:04.843Z,52.80
2019-04-07T18:26:56.248Z,53.10
2019-04-07T18:29:59.683Z,53.40
2019-04-07T18:32:58.716Z,53.20
2019-04-07T18:35:43.694Z,53.70
2019-04-07T18:38:20.622Z,54.00
2019-04-07T18:41:11.179Z,54.00
2019-04-07T18:44:05.277Z,55.20
2019-04-07T18:46:55.243Z,54.70
2019-04-07T18:49:46.540Z,54.90
2019-04-07T18:52:34.403Z,55.20
2019-04-07T18:55:22.392Z,55.40
2019-04-07T18:58:15.328Z,55.60
2019-04-07T19:01:05.725Z,55.90
2019-04-07T19:03:53.803Z,56.20
2019-04-07T19:06:48.920Z,56.80
2019-04-07T19:09:41.180Z,57.00
2019-04-07T19:12:30.385Z,56.80
2019-04-07T19:15:17.798Z,57.10
2019-04-07T19:18:09.911Z,57.00
2019-04-07T19:20:59.107Z,57.10
2019-04-07T19:23:47.410Z,57.30
2019-04-07T19:26:35.727Z,57.60
2019-04-07T19:29:14.113Z,57.70
2019-04-07T19:32:22.407Z,58.50
2019-04-07T19:35:11.538Z,58.50
2019-04-07T19:38:03.509Z,58.90
2019-04-07T19:40:40.203Z,59.00
2019-04-07T19:43:33.051Z,59.10
2019-04-07T19:46:10.910Z,59.30
2019-04-07T19:48:57.012Z,59.70
2019-04-07T19:51:46.872Z,59.80
2019-04-07T19:54:32.865Z,60.40
2019-04-07T19:57:12.124Z,60.60
2019-04-07T20:00:03.234Z,60.80
2019-04-07T20:02:55.195Z,61.60
2019-04-07T20:05:43.022Z,61.70
2019-04-07T20:08:35.177Z,61.40
2019-04-07T20:11:28.415Z,62.10
2019-04-07T20:14:23.940Z,62.10
2019-04-07T20:17:16.371Z,61.60
2019-04-07T20:20:10.013Z,61.90
2019-04-07T20:23:04.416Z,62.00
2019-04-07T20:25:43.210Z,61.70
2019-04-07T20:28:30.384Z,61.70
2019-04-07T20:31:19.331Z,61.40
2019-04-07T20:34:10.576Z,62.20
2019-04-07T20:37:05.167Z,62.00
2019-04-07T20:40:05.375Z,62.80
2019-04-07T20:42:50.528Z,62.90
2019-04-07T20:45:35.414Z,63.40
2019-04-07T20:48:37.282Z,63.20
2019-04-07T20:51:25.383Z,63.60
2019-04-07T20:54:05.967Z,64.10
2019-04-07T20:56:48.377Z,65.10
2019-04-07T20:59:47.001Z,64.10
2019-04-07T21:02:25.020Z,64.70
2019-04-07T21:05:23.994Z,64.90
2019-04-07T21:08:10.373Z,65.00
2019-04-07T21:10:47.089Z,65.00
2019-04-07T21:13:38.226Z,65.20
2019-04-07T21:16:32.720Z,65.10
2019-04-07T21:19:11.335Z,65.00
2019-04-07T21:21:52.637Z,64.80
2019-04-07T21:24:44.309Z,65.00
2019-04-07T21:27:34.764Z,64.90
2019-04-07T21:30:14.797Z,65.30
2019-04-07T21:32:52.593Z,65.30
2019-04-07T21:35:40.938Z,65.00
2019-04-07T21:38:25.775Z,65.40
2019-04-07T21:41:12.168Z,65.20
2019-04-07T21:43:58.250Z,66.00
2019-04-07T21:46:54.762Z,65.90
2019-04-07T21:49:51.468Z,66.30
2019-04-07T21:52:35.615Z,66.50
2019-04-07T21:55:25.314Z,66.80
2019-04-07T21:58:12.745Z,67.10
2019-04-07T22:01:05.070Z,67.10
2019-04-07T22:03:49.307Z,67.50
2019-04-07T22:06:26.520Z,67.30
2019-04-07T22:09:15.916Z,67.20
2019-04-07T22:11:45.826Z,67.10
2019-04-07T22:14:16.674Z,68.10
2019-04-07T22:16:47.135Z,69.10
2019-04-07T22:19:17.642Z,68.20
2019-04-07T22:21:48.047Z,68.10
2019-04-07T22:24:18.803Z,68.20
2019-04-07T22:26:50.140Z,68.30
2019-04-07T22:29:20.357Z,68.20
2019-04-07T22:31:51.918Z,68.20
2019-04-07T22:34:21.205Z,68.40
2019-04-07T22:36:50.507Z,69.10
2019-04-07T22:39:20.522Z,69.60
2019-04-07T22:41:51.284Z,70.30
2019-04-07T22:44:22.910Z,70.80
2019-04-07T22:46:52.362Z,71.00
2019-04-07T22:49:23.267Z,70.80
2019-04-07T22:51:55.078Z,70.30
2019-04-07T22:54:27.260Z,69.40
2019-04-07T22:56:56.367Z,69.60
2019-04-07T22:59:26.363Z,69.60
2019-04-07T23:01:55.788Z,69.40
2019-04-07T23:04:25.851Z,69.00
2019-04-07T23:06:56.394Z,69.30
2019-04-07T23:09:27.196Z,69.60
2019-04-07T23:11:56.659Z,70.10
2019-04-07T23:14:26.059Z,70.00
2019-04-07T23:16:56.252Z,70.20
2019-04-07T23:19:27.041Z,70.50
2019-04-07T23:21:57.567Z,70.80
2019-04-07T23:24:27.574Z,71.00
2019-04-07T23:26:56.882Z,70.40
2019-04-07T23:29:26.293Z,70.40
2019-04-07T23:31:55.668Z,70.50
2019-04-07T23:34:25.453Z,70.30
2019-04-07T23:36:55.410Z,70.20
2019-04-07T23:39:25.073Z,69.60
2019-04-07T23:41:55.069Z,69.50
2019-04-07T23:44:24.405Z,69.30
2019-04-07T23:46:53.777Z,69.10
2019-04-07T23:49:23.133Z,69.00
2019-04-07T23:51:53.177Z,69.60
2019-04-07T23:54:22.643Z,69.10
2019-04-07T23:56:52.561Z,70.00
2019-04-07T23:59:22.910Z,69.40
